Time;durP1;ratioP1;P1;durP2;ratioP2;P2;SDS_P1;SDS_P2;PMS_P1;PMS_P2;Temp;Humidity;BMP_temperature;BMP_pressure;BME280_temperature;BME280_humidity;BME280_pressure;Samples;Min_cycle;Max_cycle;Signal;HPM_P1;HPM_P2
2022/01/11 00:00:49;;;;;;;5.00;1.80;;;;;;;3.76;70.93;93257.97;5025496;28;20018;-82
2022/01/11 00:03:16;;;;;;;3.85;1.55;;;;;;;3.76;71.08;93268.50;5025410;28;20022;-82
2022/01/11 00:08:15;;;;;;;4.82;2.05;;;;;;;3.72;70.88;93267.50;5025289;28;20018;-81
2022/01/11 00:10:53;;;;;;;2.72;1.95;;;;;;;3.70;71.03;93269.63;5025466;28;20148;-82
2022/01/11 00:13:20;;;;;;;4.18;2.00;;;;;;;3.65;71.13;93269.72;5040414;28;20235;-82
2022/01/11 00:15:47;;;;;;;4.75;2.40;;;;;;;3.66;70.78;93276.53;5025257;28;20030;-81
2022/01/11 00:18:14;;;;;;;5.32;2.17;;;;;;;3.65;70.63;93282.13;5023749;28;20036;-82
2022/01/11 00:20:39;;;;;;;5.75;2.45;;;;;;;3.65;70.65;93282.91;5025223;28;20022;-82
2022/01/11 00:25:36;;;;;;;4.15;2.40;;;;;;;3.59;70.81;93290.09;5025219;28;20098;-78
2022/01/11 00:28:02;;;;;;;6.28;2.70;;;;;;;3.57;70.89;93291.44;5040316;28;20022;-78
2022/01/11 00:30:32;;;;;;;6.03;2.05;;;;;;;3.58;70.75;93287.72;5040270;28;20036;-79
2022/01/11 00:33:00;;;;;;;7.45;2.42;;;;;;;3.56;70.63;93293.28;5040110;28;20093;-77
2022/01/11 00:35:29;;;;;;;5.45;2.35;;;;;;;3.56;70.61;93284.59;5024851;28;20394;-78
2022/01/11 00:37:55;;;;;;;4.20;1.90;;;;;;;3.51;70.76;93288.06;5024910;28;20033;-79
2022/01/11 00:40:22;;;;;;;4.63;1.90;;;;;;;3.47;70.91;93291.56;5023613;28;20025;-80
2022/01/11 00:42:47;;;;;;;6.00;2.30;;;;;;;3.49;70.95;93294.69;5023712;28;20034;-80
2022/01/11 00:45:13;;;;;;;3.95;2.17;;;;;;;3.46;70.88;93295.25;5024744;28;20259;-78
2022/01/11 00:47:40;;;;;;;3.90;1.55;;;;;;;3.44;70.73;93313.19;5024400;28;20240;-78
2022/01/11 00:50:08;;;;;;;4.40;1.83;;;;;;;3.38;70.96;93305.34;5024646;28;20022;-79
2022/01/11 00:52:33;;;;;;;4.32;1.63;;;;;;;3.29;70.56;93301.75;5024574;28;20093;-79
2022/01/11 00:55:00;;;;;;;4.72;1.70;;;;;;;3.22;71.08;93322.41;5024296;28;20316;-79
2022/01/11 00:57:25;;;;;;;2.67;1.30;;;;;;;3.17;71.12;93328.47;5023182;28;20026;-79
2022/01/11 00:59:52;;;;;;;2.97;1.50;;;;;;;3.11;71.31;93320.91;5024570;28;20028;-79
2022/01/11 01:02:18;;;;;;;3.63;1.25;;;;;;;3.04;71.84;93325.75;5024221;28;20018;-79
2022/01/11 01:04:43;;;;;;;5.13;1.50;;;;;;;3.00;71.73;93331.56;5024366;28;20204;-79
2022/01/11 01:07:09;;;;;;;3.22;1.48;;;;;;;2.94;71.93;93334.53;5024146;28;20026;-79
2022/01/11 01:09:56;;;;;;;3.55;1.38;;;;;;;2.86;72.17;93330.66;5024125;28;20030;-79
2022/01/11 01:12:21;;;;;;;2.22;1.08;;;;;;;2.83;72.62;93343.56;5023999;28;20092;-79
2022/01/11 01:14:47;;;;;;;3.53;1.40;;;;;;;2.76;72.66;93338.63;5023914;28;20037;-79
2022/01/11 01:17:12;;;;;;;3.17;1.42;;;;;;;2.72;72.87;93348.13;5023985;28;20320;-79
2022/01/11 01:19:38;;;;;;;4.25;1.33;;;;;;;2.69;72.97;93341.59;5039163;28;20233;-79
2022/01/11 01:22:03;;;;;;;1.98;1.00;;;;;;;2.66;73.21;93342.13;5023900;28;20097;-79
2022/01/11 01:24:29;;;;;;;2.92;1.33;;;;;;;2.57;73.41;93344.56;5022699;28;20025;-79
2022/01/11 01:26:54;;;;;;;4.43;1.80;;;;;;;2.50;73.56;93348.56;5023972;28;20089;-78
2022/01/11 01:29:20;;;;;;;2.63;1.40;;;;;;;2.31;74.26;93353.72;5023322;28;20096;-79
2022/01/11 01:31:46;;;;;;;3.25;1.60;;;;;;;2.20;74.59;93361.66;5023643;28;20367;-79
2022/01/11 01:34:11;;;;;;;3.35;1.40;;;;;;;2.14;74.89;93368.00;5023846;28;20021;-79
2022/01/11 01:36:37;;;;;;;5.60;1.73;;;;;;;1.98;74.61;93369.16;5023539;28;20224;-79
2022/01/11 01:39:04;;;;;;;4.10;1.83;;;;;;;1.89;75.11;93370.75;5023734;28;20029;-79
2022/01/11 01:41:29;;;;;;;3.60;1.60;;;;;;;1.81;75.08;93364.22;5023542;28;20032;-79
2022/01/11 01:43:59;;;;;;;2.83;1.13;;;;;;;1.79;74.77;93369.78;5023729;28;20097;-79
2022/01/11 01:46:24;;;;;;;2.92;1.15;;;;;;;1.74;74.81;93369.78;5023592;28;20018;-79
2022/01/11 01:48:51;;;;;;;2.80;1.10;;;;;;;1.72;75.18;93366.63;5023614;28;20071;-79
2022/01/11 01:51:17;;;;;;;4.75;2.45;;;;;;;1.67;74.45;93364.06;5023559;28;20021;-79
2022/01/11 01:53:47;;;;;;;2.05;1.08;;;;;;;1.66;74.43;93351.94;5022487;28;20100;-79
2022/01/11 01:56:14;;;;;;;1.23;0.73;;;;;;;1.68;74.51;93367.47;5023304;28;20017;-78
2022/01/11 01:58:40;;;;;;;2.00;0.93;;;;;;;1.68;74.11;93370.09;5023369;28;20021;-78
2022/01/11 02:01:06;;;;;;;2.03;1.02;;;;;;;1.66;74.65;93365.09;5023274;28;20099;-78
2022/01/11 02:03:38;;;;;;;2.60;0.98;;;;;;;1.67;74.54;93369.31;5023305;28;20025;-78
2022/01/11 02:06:05;;;;;;;;;;;;;;;1.65;73.39;93376.66;5023508;28;20017;-78
2022/01/11 02:08:31;;;;;;;1.10;0.50;;;;;;;1.54;73.08;93369.88;5023404;28;19968;-78
2022/01/11 02:10:57;;;;;;;2.45;0.75;;;;;;;1.51;73.57;93371.19;5038445;28;20045;-78
2022/01/11 02:13:22;;;;;;;2.15;0.93;;;;;;;1.56;73.28;93383.53;5023079;28;20042;-78
2022/01/11 02:15:49;;;;;;;1.55;0.70;;;;;;;1.54;73.84;93385.63;5023004;28;20332;-78
2022/01/11 02:18:20;;;;;;;1.17;0.70;;;;;;;1.52;74.29;93388.50;5022856;28;20029;-78
2022/01/11 02:20:46;;;;;;;1.27;0.80;;;;;;;1.56;74.71;93386.16;5023050;28;20172;-78
2022/01/11 02:23:16;;;;;;;1.55;0.82;;;;;;;1.51;74.27;93392.22;5022918;28;20220;-78
2022/01/11 02:25:43;;;;;;;2.25;0.80;;;;;;;1.50;74.34;93400.34;5022917;28;20316;-79
2022/01/11 02:28:14;;;;;;;2.08;0.90;;;;;;;1.53;74.26;93397.19;5022851;28;20021;-79
2022/01/11 02:30:41;;;;;;;1.40;0.77;;;;;;;1.56;74.05;93389.56;5022810;28;20057;-79
2022/01/11 02:33:13;;;;;;;2.47;0.82;;;;;;;1.57;73.13;93390.34;5038109;28;20108;-78
2022/01/11 02:35:39;;;;;;;1.02;0.60;;;;;;;1.51;73.70;93394.84;5022838;28;20025;-78
2022/01/11 02:38:04;;;;;;;1.15;0.63;;;;;;;1.56;74.29;93394.03;5022619;28;20343;-79
2022/01/11 02:40:30;;;;;;;1.52;0.85;;;;;;;1.62;73.51;93400.84;5022150;28;20024;-78
2022/01/11 02:42:55;;;;;;;2.17;0.90;;;;;;;1.59;73.43;93401.38;5023025;28;20308;-78
2022/01/11 02:45:21;;;;;;;1.85;0.52;;;;;;;1.57;73.23;93395.63;5022666;28;20021;-78
2022/01/11 02:47:48;;;;;;;0.88;0.60;;;;;;;1.59;73.09;93410.03;5022691;28;20013;-78
2022/01/11 02:50:16;;;;;;;3.30;0.90;;;;;;;1.64;73.61;93403.97;5037840;28;20045;-78
2022/01/11 02:52:42;;;;;;;2.03;0.90;;;;;;;1.68;73.73;93412.91;5022598;28;20029;-78
2022/01/11 02:55:11;;;;;;;2.03;0.90;;;;;;;1.74;73.98;93406.56;5022438;28;20026;-78
2022/01/11 02:57:37;;;;;;;2.05;0.90;;;;;;;1.73;73.90;93412.91;5022369;28;20090;-78
2022/01/11 03:00:08;;;;;;;3.15;0.90;;;;;;;1.73;74.02;93409.47;5022632;28;20228;-78
2022/01/11 03:02:33;;;;;;;1.40;0.70;;;;;;;1.70;72.56;93410.78;5022208;28;20105;-78
2022/01/11 03:04:58;;;;;;;1.48;0.60;;;;;;;1.76;72.69;93409.72;5022473;28;20126;-78
2022/01/11 03:07:24;;;;;;;1.88;0.80;;;;;;;1.79;73.31;93416.25;5021496;28;20064;-76
2022/01/11 03:10:02;;;;;;;2.92;0.95;;;;;;;1.84;73.08;93415.47;5022564;28;20335;-77
2022/01/11 03:12:27;;;;;;;1.58;0.75;;;;;;;1.86;72.15;93423.88;5022326;28;20095;-77
2022/01/11 03:14:53;;;;;;;1.98;1.10;;;;;;;1.91;71.45;93426.47;5022415;28;20018;-77
2022/01/11 03:17:18;;;;;;;2.95;0.60;;;;;;;1.88;70.92;93425.19;5022297;28;20224;-77
2022/01/11 03:19:45;;;;;;;1.88;0.95;;;;;;;1.86;70.85;93434.41;5021070;28;20033;-77
2022/01/11 03:22:11;;;;;;;1.27;0.52;;;;;;;1.77;71.04;93427.06;5022408;28;20022;-77
2022/01/11 03:24:37;;;;;;;1.95;0.75;;;;;;;1.69;70.99;93435.50;5022256;28;20212;-77
2022/01/11 03:27:05;;;;;;;1.63;0.60;;;;;;;1.65;70.73;93428.41;5022218;28;20238;-77
2022/01/11 03:29:30;;;;;;;0.90;0.60;;;;;;;1.68;70.83;93430.50;5022161;28;20026;-77
2022/01/11 03:31:56;;;;;;;2.78;0.65;;;;;;;1.53;69.48;93431.34;5022252;28;20018;-77
2022/01/11 03:34:21;;;;;;;1.27;0.65;;;;;;;1.50;70.63;93440.53;5022261;28;20217;-77
2022/01/11 03:36:47;;;;;;;2.38;0.70;;;;;;;1.49;71.26;93431.09;5021998;28;20303;-77
2022/01/11 03:39:12;;;;;;;2.65;0.70;;;;;;;1.46;71.73;93442.09;5022202;28;20022;-77
2022/01/11 03:41:37;;;;;;;1.13;0.70;;;;;;;1.46;71.36;93436.84;5022189;28;20041;-77
2022/01/11 03:44:03;;;;;;;1.33;0.50;;;;;;;1.48;71.25;93444.47;5022125;28;20327;-77
2022/01/11 03:46:29;;;;;;;0.90;0.50;;;;;;;1.38;70.80;93434.78;5022340;28;20089;-77
2022/01/11 03:48:54;;;;;;;0.98;0.60;;;;;;;1.33;71.29;93443.47;5021945;28;20045;-77
2022/01/11 03:51:20;;;;;;;1.70;0.80;;;;;;;1.27;71.97;93438.47;5023386;28;20316;-77
2022/01/11 03:56:40;;;;;;;4.78;0.88;;;;;;;1.07;72.28;93445.31;5029235;28;20124;-78
2022/01/11 03:59:07;;;;;;;1.30;0.60;;;;;;;1.10;73.05;93457.13;5025564;28;20025;-78
2022/01/11 04:01:34;;;;;;;1.05;0.63;;;;;;;1.11;72.75;93456.09;5025518;28;20108;-77
2022/01/11 04:03:59;;;;;;;1.38;0.75;;;;;;;1.09;72.62;93461.59;5025496;28;20029;-77
2022/01/11 04:06:26;;;;;;;2.10;0.85;;;;;;;1.08;72.79;93454.78;5025571;28;20044;-77
2022/01/11 04:08:51;;;;;;;3.78;0.77;;;;;;;1.00;72.62;93463.97;5025331;28;20044;-77
2022/01/11 04:11:17;;;;;;;0.82;0.40;;;;;;;0.96;73.54;93470.00;5025290;28;20308;-78
2022/01/11 04:13:43;;;;;;;2.40;1.10;;;;;;;0.84;73.32;93478.13;5025206;28;20503;-78
2022/01/11 04:16:09;;;;;;;1.30;0.80;;;;;;;0.73;73.55;93474.72;5025249;28;20324;-78
2022/01/11 04:18:35;;;;;;;0.95;0.63;;;;;;;0.73;74.13;93471.28;5025110;28;20026;-78
2022/01/11 04:21:00;;;;;;;1.33;0.82;;;;;;;0.63;73.78;93479.13;5025209;28;20030;-77
2022/01/11 04:23:27;;;;;;;2.90;0.85;;;;;;;0.56;73.30;93480.19;5025116;28;20096;-77
2022/01/11 04:25:53;;;;;;;1.70;0.60;;;;;;;0.54;74.13;93484.91;5025041;28;20060;-77
2022/01/11 04:28:18;;;;;;;1.02;0.50;;;;;;;0.56;74.93;93497.75;5024928;28;20021;-77
2022/01/11 04:30:44;;;;;;;0.80;0.50;;;;;;;0.57;74.71;93497.50;5024758;28;20030;-77
2022/01/11 04:33:09;;;;;;;1.05;0.73;;;;;;;0.57;74.77;93496.69;5024942;28;20084;-77
2022/01/11 04:35:35;;;;;;;1.25;0.73;;;;;;;0.52;74.64;93507.97;5025011;28;20100;-77
2022/01/11 04:38:00;;;;;;;0.90;0.55;;;;;;;0.49;74.24;93513.75;5024918;28;20088;-78
2022/01/11 04:40:26;;;;;;;1.10;0.55;;;;;;;0.43;74.67;93508.72;5024701;28;20029;-78
2022/01/11 04:42:52;;;;;;;1.27;0.52;;;;;;;0.39;73.55;93508.47;5024492;28;20280;-77
2022/01/11 04:45:18;;;;;;;1.08;0.68;;;;;;;0.43;73.70;93512.16;5024527;28;20029;-77
2022/01/11 04:47:50;;;;;;;1.05;0.55;;;;;;;0.50;74.58;93519.78;5024387;28;20026;-77
2022/01/11 04:50:15;;;;;;;0.90;0.50;;;;;;;0.40;72.04;93523.94;5024605;28;20018;-78
2022/01/11 04:52:41;;;;;;;1.33;0.60;;;;;;;0.43;72.90;93524.47;5024603;28;20021;-78
2022/01/11 04:55:08;;;;;;;1.55;0.88;;;;;;;0.50;73.47;93527.63;5023085;28;20065;-77
2022/01/11 04:57:33;;;;;;;1.08;0.63;;;;;;;0.55;74.13;93528.44;5024211;28;20331;-78
2022/01/11 04:59:58;;;;;;;1.45;0.80;;;;;;;0.58;72.60;93538.41;5024529;28;20079;-78
2022/01/11 05:02:26;;;;;;;1.38;0.68;;;;;;;0.62;73.13;93543.94;5023384;28;20022;-77
2022/01/11 05:04:52;;;;;;;2.80;1.15;;;;;;;0.59;72.91;93545.25;5024114;28;20025;-78
2022/01/11 05:07:17;;;;;;;0.93;0.60;;;;;;;0.50;71.66;93544.16;5024157;28;20022;-78
2022/01/11 05:09:43;;;;;;;0.88;0.65;;;;;;;0.44;72.78;93537.31;5023090;28;20045;-77
2022/01/11 05:12:09;;;;;;;1.50;0.80;;;;;;;0.46;73.24;93550.97;5023877;28;20042;-77
2022/01/11 05:14:34;;;;;;;3.83;0.80;;;;;;;0.42;73.21;93544.66;5023788;28;20320;-77
2022/01/11 05:17:00;;;;;;;1.38;0.70;;;;;;;0.39;73.23;93545.19;5024241;28;20144;-78
2022/01/11 05:19:25;;;;;;;1.48;0.60;;;;;;;0.15;72.18;93553.47;5023887;28;20096;-77
2022/01/11 05:21:50;;;;;;;5.10;1.00;;;;;;;0.25;73.47;93550.09;5023759;28;20064;-77
2022/01/11 05:24:16;;;;;;;0.88;0.60;;;;;;;0.32;73.94;93560.34;5023767;28;20265;-78
2022/01/11 05:26:42;;;;;;;1.33;0.75;;;;;;;0.43;73.69;93566.41;5023739;28;20335;-78
2022/01/11 05:29:07;;;;;;;0.82;0.60;;;;;;;0.54;73.03;93566.19;5039107;28;20032;-78
2022/01/11 05:31:34;;;;;;;1.08;0.73;;;;;;;0.68;72.82;93570.97;5023983;28;20049;-78
2022/01/11 05:34:00;;;;;;;1.58;0.95;;;;;;;0.88;71.93;93568.41;5023982;28;20060;-78
2022/01/11 05:36:25;;;;;;;1.98;0.85;;;;;;;0.89;69.79;93577.03;5023663;28;20092;-78
2022/01/11 05:38:51;;;;;;;0.93;0.52;;;;;;;0.92;69.97;93569.44;5023518;28;20033;-78
2022/01/11 05:41:16;;;;;;;1.65;0.65;;;;;;;0.93;68.86;93576.25;5023547;28;20025;-77
2022/01/11 05:43:42;;;;;;;4.65;1.25;;;;;;;1.00;69.55;93571.56;5023364;28;20032;-77
2022/01/11 05:46:07;;;;;;;3.63;1.00;;;;;;;1.07;70.98;93576.56;5023503;28;20089;-77
2022/01/11 05:48:33;;;;;;;1.70;0.80;;;;;;;1.08;69.23;93577.34;5023729;28;20021;-77
2022/01/11 05:50:59;;;;;;;1.02;0.68;;;;;;;1.11;69.09;93571.59;5023434;28;20030;-77
2022/01/11 05:53:25;;;;;;;1.23;0.70;;;;;;;1.01;67.91;93588.09;5038654;28;20083;-77
2022/01/11 05:55:50;;;;;;;1.38;0.70;;;;;;;0.93;68.73;93599.09;5023225;28;20248;-77
2022/01/11 05:58:16;;;;;;;4.43;0.80;;;;;;;0.82;67.09;93585.19;5023315;28;20029;-77
2022/01/11 06:00:42;;;;;;;1.45;0.63;;;;;;;0.73;66.54;93586.72;5023231;28;20374;-77
2022/01/11 06:03:07;;;;;;;1.88;0.52;;;;;;;0.66;66.44;93580.94;5023090;28;20216;-77
2022/01/11 06:05:38;;;;;;;0.90;0.50;;;;;;;0.66;67.50;93594.06;5023306;28;20021;-77
2022/01/11 06:08:05;;;;;;;2.83;0.98;;;;;;;0.63;67.44;93594.56;5023362;28;20058;-78
2022/01/11 06:10:30;;;;;;;2.28;1.30;;;;;;;0.62;69.29;93606.88;5023044;28;20018;-77
2022/01/11 06:12:56;;;;;;;1.25;0.65;;;;;;;0.57;68.12;93614.72;5022557;28;20320;-77
2022/01/11 06:15:21;;;;;;;2.08;0.95;;;;;;;0.57;68.13;93620.78;5022344;28;20029;-77
2022/01/11 06:17:48;;;;;;;1.20;0.70;;;;;;;0.67;68.30;93600.84;5022830;28;20022;-77
2022/01/11 06:20:13;;;;;;;1.42;0.85;;;;;;;0.72;67.96;93619.25;5022881;28;20028;-77
2022/01/11 06:22:39;;;;;;;4.50;1.50;;;;;;;0.74;68.31;93625.81;5022818;28;20320;-79
2022/01/11 06:25:06;;;;;;;4.25;1.15;;;;;;;0.79;68.86;93627.66;5023051;28;20161;-79
2022/01/11 06:27:33;;;;;;;2.13;1.08;;;;;;;0.75;68.64;93624.78;5023173;28;20189;-79
2022/01/11 06:29:59;;;;;;;3.13;1.08;;;;;;;0.58;68.84;93638.06;5022944;28;20248;-79
2022/01/11 06:32:27;;;;;;;2.00;0.82;;;;;;;0.45;69.42;93643.00;5022812;28;20018;-79
2022/01/11 06:34:53;;;;;;;1.60;0.82;;;;;;;0.28;68.65;93640.53;5022783;28;20220;-79
2022/01/11 06:37:19;;;;;;;2.03;0.70;;;;;;;0.09;66.46;93629.69;5022331;28;20029;-78
2022/01/11 06:39:45;;;;;;;1.00;0.60;;;;;;;0.17;68.04;93640.50;5022371;28;20136;-78
2022/01/11 06:42:10;;;;;;;2.13;1.00;;;;;;;0.23;68.93;93648.41;5022453;28;20022;-78
2022/01/11 06:44:37;;;;;;;2.88;1.00;;;;;;;0.28;69.41;93645.78;5022635;28;20033;-78
2022/01/11 06:47:03;;;;;;;1.45;0.90;;;;;;;0.27;69.04;93655.50;5022843;28;20270;-77
2022/01/11 06:49:28;;;;;;;1.45;0.70;;;;;;;0.30;68.86;93646.31;5022587;28;20022;-77
2022/01/11 06:51:54;;;;;;;2.55;0.90;;;;;;;0.38;68.82;93653.72;5022565;28;20364;-77
2022/01/11 06:54:19;;;;;;;2.33;1.00;;;;;;;0.31;68.93;93651.31;5022401;28;20026;-79
2022/01/11 06:56:45;;;;;;;1.98;0.98;;;;;;;0.38;68.34;93651.09;5022362;28;20335;-76
2022/01/11 06:59:10;;;;;;;1.70;0.77;;;;;;;0.42;68.23;93665.28;5022552;28;20208;-76
2022/01/11 07:01:36;;;;;;;2.05;1.02;;;;;;;0.34;68.10;93663.91;5022418;28;20018;-76
2022/01/11 07:04:01;;;;;;;3.58;1.08;;;;;;;0.38;69.41;93669.44;5022681;28;20024;-76
2022/01/11 07:06:27;;;;;;;1.67;0.90;;;;;;;0.39;68.68;93661.34;5022199;28;20014;-76
2022/01/11 07:08:53;;;;;;;2.03;0.82;;;;;;;0.45;67.55;93675.25;5022315;28;20223;-76
2022/01/11 07:11:18;;;;;;;1.75;0.98;;;;;;;0.45;66.34;93675.25;5022263;28;20033;-76
2022/01/11 07:13:44;;;;;;;3.10;1.30;;;;;;;0.50;67.57;93682.38;5022172;28;20042;-76
2022/01/11 07:16:09;;;;;;;3.13;1.00;;;;;;;0.58;67.34;93682.66;5022206;28;20036;-76
2022/01/11 07:18:35;;;;;;;4.10;1.50;;;;;;;0.66;70.06;93676.16;5022280;28;20030;-76
2022/01/11 07:21:00;;;;;;;2.22;0.80;;;;;;;0.76;68.13;93685.91;5021947;28;20026;-76
2022/01/11 07:23:26;;;;;;;2.47;1.70;;;;;;;0.84;68.09;93679.38;5022019;28;20026;-76
2022/01/11 07:25:51;;;;;;;3.45;1.02;;;;;;;0.92;65.25;93690.16;5022783;28;20089;-77
2022/01/11 07:28:17;;;;;;;3.55;1.20;;;;;;;1.02;64.55;93706.97;5026199;28;20029;-73
2022/01/11 07:30:43;;;;;;;3.28;1.25;;;;;;;1.10;64.08;93702.03;5029127;28;20060;-72
2022/01/11 07:33:08;;;;;;;2.85;1.40;;;;;;;1.20;65.31;93707.34;5026171;28;20021;-73
2022/01/11 07:35:34;;;;;;;3.45;1.48;;;;;;;1.31;67.60;93707.38;5026304;28;20033;-72
2022/01/11 07:37:59;;;;;;;8.25;2.92;;;;;;;1.39;65.75;93718.16;5026079;28;20166;-72
2022/01/11 07:40:25;;;;;;;3.97;2.10;;;;;;;1.51;64.26;93725.00;5026077;28;20048;-72
2022/01/11 07:42:51;;;;;;;3.55;1.40;;;;;;;1.59;63.74;93714.78;5025921;28;20029;-72
2022/01/11 07:45:16;;;;;;;3.60;1.02;;;;;;;1.64;64.59;93721.88;5025734;28;20052;-72
2022/01/11 07:47:42;;;;;;;3.42;1.17;;;;;;;1.73;64.27;93717.69;5025911;28;20018;-72
2022/01/11 07:50:08;;;;;;;1.33;0.88;;;;;;;1.79;64.36;93723.72;5026085;28;20358;-76
2022/01/11 07:52:34;;;;;;;1.58;0.80;;;;;;;1.81;64.78;93721.63;5025747;28;20018;-76
2022/01/11 07:55:00;;;;;;;2.65;0.80;;;;;;;1.74;62.13;93714.00;5025307;28;20091;-77
2022/01/11 07:57:26;;;;;;;1.52;0.80;;;;;;;1.68;62.83;93728.19;5025254;28;20021;-76
2022/01/11 07:59:52;;;;;;;3.85;1.25;;;;;;;1.66;60.92;93730.28;5025609;28;20093;-77
2022/01/11 08:02:17;;;;;;;2.53;0.93;;;;;;;1.62;60.66;93738.94;5025286;28;20017;-76
2022/01/11 08:04:43;;;;;;;1.52;0.80;;;;;;;1.55;61.27;93745.25;5040686;28;20026;-76
2022/01/11 08:07:10;;;;;;;2.85;1.55;;;;;;;1.58;62.27;93743.94;5025408;28;20153;-76
2022/01/11 08:09:35;;;;;;;2.33;1.15;;;;;;;1.49;62.72;93746.28;5024364;28;20028;-75
2022/01/11 08:12:01;;;;;;;2.20;1.17;;;;;;;1.37;62.98;93737.84;5025294;28;20045;-75
2022/01/11 08:14:26;;;;;;;5.90;1.40;;;;;;;1.30;64.72;93745.16;5025293;28;20105;-75
2022/01/11 08:16:52;;;;;;;2.38;1.20;;;;;;;1.24;65.52;93749.59;5025087;28;20030;-75
2022/01/11 08:19:24;;;;;;;2.20;1.00;;;;;;;1.16;64.17;93757.97;5024887;28;20021;-75
2022/01/11 08:21:51;;;;;;;1.17;0.80;;;;;;;1.10;65.74;93757.19;5024908;28;20021;-75
2022/01/11 08:24:16;;;;;;;1.20;0.60;;;;;;;0.95;65.19;93757.09;5024864;28;20026;-75
2022/01/11 08:26:41;;;;;;;4.95;2.40;;;;;;;0.90;66.42;93765.75;5024280;28;20037;-77
2022/01/11 08:29:07;;;;;;;7.85;2.00;;;;;;;0.84;66.81;93773.84;5039856;28;20037;-76
2022/01/11 08:31:32;;;;;;;3.60;1.55;;;;;;;0.90;67.15;93762.34;5024864;28;20084;-77
2022/01/11 08:33:58;;;;;;;3.33;1.48;;;;;;;0.95;66.72;93770.22;5040201;28;20083;-76
2022/01/11 08:36:23;;;;;;;9.98;1.45;;;;;;;0.94;66.71;93766.81;5024686;28;20029;-75
2022/01/11 08:38:49;;;;;;;2.97;1.40;;;;;;;0.96;65.96;93764.72;5023462;28;20277;-76
2022/01/11 08:41:14;;;;;;;2.53;1.10;;;;;;;1.00;65.47;93771.03;5024572;28;20038;-76
2022/01/11 08:43:39;;;;;;;4.13;2.08;;;;;;;1.02;65.74;93772.59;5039893;28;20030;-76
2022/01/11 08:46:05;;;;;;;12.27;2.72;;;;;;;1.04;65.80;93781.00;5024508;28;20332;-76
2022/01/11 08:48:32;;;;;;;4.00;1.98;;;;;;;1.00;65.99;93789.41;5039922;28;20046;-77
2022/01/11 08:50:57;;;;;;;7.10;1.90;;;;;;;0.99;66.48;93800.94;5024628;28;20089;-76
2022/01/11 08:53:23;;;;;;;4.00;2.05;;;;;;;1.03;66.82;93792.56;5024660;28;20034;-76
2022/01/11 08:55:50;;;;;;;5.22;1.83;;;;;;;1.05;66.65;93800.97;5023219;28;20328;-76
2022/01/11 08:58:17;;;;;;;5.47;2.03;;;;;;;1.13;66.48;93800.50;5024285;28;20130;-76
2022/01/11 09:00:43;;;;;;;4.32;1.20;;;;;;;1.22;66.20;93803.41;5024482;28;20252;-76
2022/01/11 09:03:09;;;;;;;5.00;1.50;;;;;;;1.26;66.08;93804.47;5039724;28;20096;-75
2022/01/11 09:05:34;;;;;;;9.95;2.42;;;;;;;1.19;65.52;93816.00;5039806;28;20045;-76
2022/01/11 09:08:00;;;;;;;5.53;2.30;;;;;;;1.14;65.80;93820.44;5039788;28;20060;-76
2022/01/11 09:10:25;;;;;;;7.32;2.75;;;;;;;1.10;66.43;93817.56;5022875;28;20089;-76
2022/01/11 09:12:51;;;;;;;6.38;2.53;;;;;;;1.10;66.28;93822.00;5024213;28;20034;-76
2022/01/11 09:15:16;;;;;;;6.35;1.98;;;;;;;1.08;66.75;93808.31;5024295;28;20065;-77
2022/01/11 09:17:42;;;;;;;9.57;1.80;;;;;;;1.04;66.38;93815.13;5023984;28;20066;-77
2022/01/11 09:20:09;;;;;;;5.03;2.10;;;;;;;0.98;67.03;93815.13;5024209;28;20021;-76
2022/01/11 09:22:35;;;;;;;6.65;1.85;;;;;;;0.83;66.77;93822.88;5022797;28;20021;-76
2022/01/11 09:25:01;;;;;;;3.95;1.13;;;;;;;0.89;64.98;93836.84;5024082;28;20033;-75
2022/01/11 09:27:26;;;;;;;2.97;1.10;;;;;;;0.73;63.54;93833.31;5023905;28;20372;-76
2022/01/11 09:29:52;;;;;;;2.25;0.90;;;;;;;0.75;64.46;93831.22;5023858;28;20220;-76
2022/01/11 09:32:17;;;;;;;4.20;0.90;;;;;;;0.83;64.49;93820.25;5023867;28;20033;-75
2022/01/11 09:34:43;;;;;;;4.63;1.27;;;;;;;0.82;64.27;93825.78;5023672;28;20036;-76
2022/01/11 09:37:10;;;;;;;2.10;1.20;;;;;;;0.80;64.40;93828.66;5023901;28;20095;-77
2022/01/11 09:39:36;;;;;;;2.33;1.13;;;;;;;0.76;65.44;93830.97;5023841;28;20089;-77
2022/01/11 09:42:05;;;;;;;2.30;1.30;;;;;;;0.82;64.96;93831.81;5023680;28;20026;-77
2022/01/11 09:44:32;;;;;;;4.88;1.17;;;;;;;0.82;64.92;93831.81;5023665;28;20029;-77
2022/01/11 09:46:58;;;;;;;2.72;1.27;;;;;;;0.94;65.39;93834.25;5023263;28;20021;-77
2022/01/11 09:49:24;;;;;;;3.38;1.15;;;;;;;1.10;65.05;93837.75;5023080;28;20029;-77
2022/01/11 09:51:51;;;;;;;5.82;1.40;;;;;;;1.12;64.00;93848.78;5023438;28;20041;-77
2022/01/11 09:54:19;;;;;;;4.85;1.88;;;;;;;1.13;63.93;93843.28;5023284;28;20025;-77
2022/01/11 09:56:44;;;;;;;3.80;1.45;;;;;;;1.12;62.06;93846.16;5023276;28;20317;-77
2022/01/11 09:59:10;;;;;;;2.53;1.55;;;;;;;0.85;62.45;93844.41;5023251;28;20030;-77
2022/01/11 10:01:36;;;;;;;2.63;1.20;;;;;;;0.88;62.91;93849.19;5023406;28;20032;-77
2022/01/11 10:04:08;;;;;;;7.50;2.13;;;;;;;0.97;62.67;93849.47;5025287;28;20032;-76
2022/01/11 10:06:41;;;;;;;5.10;1.73;;;;;;;1.04;63.28;93854.50;5023206;28;20133;-77
2022/01/11 10:09:18;;;;;;;6.60;1.30;;;;;;;1.15;63.68;93854.31;5023346;28;20089;-77
2022/01/11 10:11:50;;;;;;;3.97;2.03;;;;;;;1.22;62.61;93850.69;5022972;28;20049;-77
2022/01/11 10:14:33;;;;;;;2.80;1.27;;;;;;;1.10;62.26;93853.50;5023055;28;20033;-77
2022/01/11 10:17:19;;;;;;;2.88;1.35;;;;;;;1.06;61.01;93857.66;5023059;28;20026;-77
2022/01/11 10:20:01;;;;;;;1.70;0.93;;;;;;;0.92;59.45;93850.25;5023234;28;20029;-77
2022/01/11 10:22:29;;;;;;;3.35;1.10;;;;;;;0.88;61.31;93851.81;5022767;28;20038;-75
2022/01/11 10:24:56;;;;;;;6.43;2.22;;;;;;;0.96;62.42;93856.56;5022989;28;20093;-76
2022/01/11 10:27:26;;;;;;;5.93;1.85;;;;;;;1.07;61.65;93851.38;5022769;28;20354;-77
2022/01/11 10:29:54;;;;;;;4.22;1.52;;;;;;;1.11;62.05;93849.84;5023069;28;20038;-76
2022/01/11 10:32:36;;;;;;;2.38;1.30;;;;;;;1.23;62.33;93863.56;5022665;28;20026;-77
2022/01/11 10:35:08;;;;;;;2.80;1.50;;;;;;;1.33;60.13;93855.72;5022697;28;20103;-76
2022/01/11 10:37:46;;;;;;;3.85;1.08;;;;;;;1.27;59.07;93864.63;5022828;28;20022;-75
2022/01/11 10:40:18;;;;;;;2.40;1.23;;;;;;;1.17;59.84;93865.34;5021450;28;20030;-75
2022/01/11 10:42:51;;;;;;;;;;;;;;;1.03;59.20;93864.22;5023221;28;20026;-76
2022/01/11 10:45:20;;;;;;;2.00;0.90;;;;;;;0.72;59.54;93857.97;5022528;28;19905;-75
2022/01/11 10:47:49;;;;;;;1.92;0.98;;;;;;;0.65;60.77;93862.63;5022482;28;20064;-75
2022/01/11 10:50:28;;;;;;;11.13;1.80;;;;;;;0.43;61.77;93858.28;5022451;28;20021;-76
2022/01/11 10:53:00;;;;;;;2.55;1.25;;;;;;;0.36;62.65;93861.09;5022594;28;20041;-75
2022/01/11 10:55:29;;;;;;;2.95;1.38;;;;;;;0.47;62.63;93867.22;5022421;28;20027;-76
2022/01/11 10:57:58;;;;;;;3.78;1.40;;;;;;;0.60;63.56;93861.56;5022164;28;20041;-76
2022/01/11 11:00:24;;;;;;;5.57;1.60;;;;;;;0.70;62.35;93860.06;5022558;28;20032;-75
2022/01/11 11:02:56;;;;;;;3.00;1.48;;;;;;;0.75;61.77;93863.53;5026667;28;20093;-75
2022/01/11 11:05:25;;;;;;;4.22;1.67;;;;;;;0.90;61.16;93865.47;5026642;28;20025;-76
2022/01/11 11:08:01;;;;;;;4.00;2.00;;;;;;;0.98;60.39;93862.38;5026476;28;20260;-76
2022/01/11 11:10:31;;;;;;;4.68;2.28;;;;;;;0.93;59.89;93856.28;5026563;28;20032;-77
2022/01/11 11:12:58;;;;;;;3.95;1.88;;;;;;;0.85;59.80;93859.38;5026349;28;20109;-76
2022/01/11 11:15:33;;;;;;;3.28;1.88;;;;;;;0.79;60.30;93848.06;5026430;28;20253;-76
2022/01/11 11:17:59;;;;;;;5.63;2.55;;;;;;;0.80;60.53;93860.13;5026355;28;20037;-76
2022/01/11 11:20:24;;;;;;;3.67;1.35;;;;;;;0.70;59.25;93858.22;5026329;28;20026;-76
2022/01/11 11:22:51;;;;;;;4.97;2.05;;;;;;;0.70;60.44;93866.09;5026339;28;20030;-76
2022/01/11 11:25:17;;;;;;;3.75;1.70;;;;;;;0.68;59.16;93860.31;5026116;28;20032;-76
2022/01/11 11:27:42;;;;;;;4.90;1.95;;;;;;;0.75;58.93;93857.47;5026123;28;20026;-76
2022/01/11 11:30:08;;;;;;;3.75;1.40;;;;;;;0.73;59.28;93864.78;5024970;28;20026;-76
2022/01/11 11:32:35;;;;;;;3.97;1.73;;;;;;;0.65;60.04;93867.88;5041268;28;20068;-76
2022/01/11 11:35:00;;;;;;;3.50;1.48;;;;;;;0.59;61.74;93862.63;5025907;28;20030;-76
2022/01/11 11:37:33;;;;;;;3.95;1.60;;;;;;;0.60;61.28;93864.19;5025702;28;20033;-76
2022/01/11 11:40:06;;;;;;;3.88;1.83;;;;;;;0.66;60.61;93870.25;5025804;28;20025;-76
2022/01/11 11:42:32;;;;;;;9.48;4.75;;;;;;;0.73;61.29;93872.66;5025784;28;20112;-76
2022/01/11 11:44:59;;;;;;;8.05;4.18;;;;;;;0.86;61.24;93876.72;5025621;28;20025;-76
2022/01/11 11:47:35;;;;;;;5.15;2.33;;;;;;;0.96;59.89;93882.81;5025706;28;20089;-76